sensor_id;sensor_type;location;lat;lon;timestamp;pressure;altitude;pressure_sealevel;temperature;humidity
65190;BME280;51777;53.570;9.984;2023-07-09T00:00:16;101784.59;;;21.00;100.00
65190;BME280;51777;53.570;9.984;2023-07-09T00:02:43;101772.38;;;20.92;100.00
65190;BME280;51777;53.570;9.984;2023-07-09T00:05:14;101786.09;;;20.88;100.00
65190;BME280;51777;53.570;9.984;2023-07-09T00:07:43;101783.19;;;20.82;100.00
65190;BME280;51777;53.570;9.984;2023-07-09T00:12:40;101784.41;;;20.80;100.00
65190;BME280;51777;53.570;9.984;2023-07-09T00:15:06;101780.94;;;20.79;100.00
65190;BME280;51777;53.570;9.984;2023-07-09T00:17:35;101785.22;;;20.80;100.00
65190;BME280;51777;53.570;9.984;2023-07-09T00:20:01;101787.84;;;20.80;100.00
65190;BME280;51777;53.570;9.984;2023-07-09T00:22:26;101788.97;;;20.71;100.00
65190;BME280;51777;53.570;9.984;2023-07-09T00:24:55;101789.41;;;20.75;100.00
65190;BME280;51777;53.570;9.984;2023-07-09T00:27:23;101788.66;;;20.81;100.00
65190;BME280;51777;53.570;9.984;2023-07-09T00:29:51;101795.66;;;20.74;100.00
65190;BME280;51777;53.570;9.984;2023-07-09T00:32:19;101794.03;;;20.73;100.00
65190;BME280;51777;53.570;9.984;2023-07-09T00:34:50;101793.97;;;20.66;100.00
65190;BME280;51777;53.570;9.984;2023-07-09T00:37:20;101798.97;;;20.61;100.00
65190;BME280;51777;53.570;9.984;2023-07-09T00:39:47;101795.53;;;20.61;100.00
65190;BME280;51777;53.570;9.984;2023-07-09T00:42:19;101791.44;;;20.58;100.00
65190;BME280;51777;53.570;9.984;2023-07-09T00:44:51;101802.69;;;20.52;100.00
65190;BME280;51777;53.570;9.984;2023-07-09T00:50:06;101791.56;;;20.35;100.00
65190;BME280;51777;53.570;9.984;2023-07-09T00:52:58;101794.53;;;20.32;100.00
65190;BME280;51777;53.570;9.984;2023-07-09T00:55:31;101791.56;;;20.35;100.00
65190;BME280;51777;53.570;9.984;2023-07-09T00:58:01;101791.91;;;20.32;100.00
65190;BME280;51777;53.570;9.984;2023-07-09T01:00:35;101784.59;;;20.28;100.00
65190;BME280;51777;53.570;9.984;2023-07-09T01:03:09;101779.09;;;20.22;100.00
65190;BME280;51777;53.570;9.984;2023-07-09T01:05:36;101782.81;;;20.13;100.00
65190;BME280;51777;53.570;9.984;2023-07-09T01:08:02;101779.63;;;20.18;100.00
65190;BME280;51777;53.570;9.984;2023-07-09T01:10:27;101785.25;;;20.15;100.00
65190;BME280;51777;53.570;9.984;2023-07-09T01:12:53;101781.00;;;20.14;100.00
65190;BME280;51777;53.570;9.984;2023-07-09T01:15:18;101780.38;;;20.12;100.00
65190;BME280;51777;53.570;9.984;2023-07-09T01:17:44;101768.06;;;20.12;100.00
65190;BME280;51777;53.570;9.984;2023-07-09T01:20:18;101772.22;;;20.07;100.00
65190;BME280;51777;53.570;9.984;2023-07-09T01:22:50;101765.25;;;19.99;100.00
65190;BME280;51777;53.570;9.984;2023-07-09T01:25:16;101770.97;;;20.03;100.00
65190;BME280;51777;53.570;9.984;2023-07-09T01:27:45;101769.69;;;19.99;100.00
65190;BME280;51777;53.570;9.984;2023-07-09T01:30:27;101767.25;;;19.97;100.00
65190;BME280;51777;53.570;9.984;2023-07-09T01:32:56;101772.66;;;19.95;100.00
65190;BME280;51777;53.570;9.984;2023-07-09T01:35:22;101771.66;;;19.97;100.00
65190;BME280;51777;53.570;9.984;2023-07-09T01:37:49;101781.28;;;19.89;100.00
65190;BME280;51777;53.570;9.984;2023-07-09T01:40:17;101780.03;;;19.85;100.00
65190;BME280;51777;53.570;9.984;2023-07-09T01:42:44;101779.56;;;19.82;100.00
65190;BME280;51777;53.570;9.984;2023-07-09T01:45:10;101779.56;;;19.82;100.00
65190;BME280;51777;53.570;9.984;2023-07-09T01:47:36;101780.72;;;19.79;100.00
65190;BME280;51777;53.570;9.984;2023-07-09T01:50:03;101781.72;;;19.78;100.00
65190;BME280;51777;53.570;9.984;2023-07-09T01:52:30;101780.00;;;19.71;100.00
65190;BME280;51777;53.570;9.984;2023-07-09T01:54:56;101779.84;;;19.72;100.00
65190;BME280;51777;53.570;9.984;2023-07-09T01:57:24;101777.91;;;19.66;100.00
65190;BME280;51777;53.570;9.984;2023-07-09T01:59:54;101779.91;;;19.64;100.00
65190;BME280;51777;53.570;9.984;2023-07-09T02:02:23;101782.09;;;19.60;100.00
65190;BME280;51777;53.570;9.984;2023-07-09T02:04:55;101774.56;;;19.57;100.00
65190;BME280;51777;53.570;9.984;2023-07-09T02:07:23;101775.38;;;19.58;100.00
65190;BME280;51777;53.570;9.984;2023-07-09T02:09:49;101771.44;;;19.54;100.00
65190;BME280;51777;53.570;9.984;2023-07-09T02:12:16;101772.13;;;19.56;100.00
65190;BME280;51777;53.570;9.984;2023-07-09T02:14:43;101772.13;;;19.56;100.00
65190;BME280;51777;53.570;9.984;2023-07-09T02:17:10;101763.13;;;19.50;100.00
65190;BME280;51777;53.570;9.984;2023-07-09T02:19:36;101771.00;;;19.50;100.00
65190;BME280;51777;53.570;9.984;2023-07-09T02:22:02;101760.41;;;19.44;100.00
65190;BME280;51777;53.570;9.984;2023-07-09T02:24:28;101761.38;;;19.43;100.00
65190;BME280;51777;53.570;9.984;2023-07-09T02:26:55;101758.78;;;19.43;100.00
65190;BME280;51777;53.570;9.984;2023-07-09T02:29:21;101766.00;;;19.41;100.00
65190;BME280;51777;53.570;9.984;2023-07-09T02:31:48;101770.31;;;19.33;100.00
65190;BME280;51777;53.570;9.984;2023-07-09T02:34:14;101770.41;;;19.25;100.00
65190;BME280;51777;53.570;9.984;2023-07-09T02:36:39;101777.16;;;19.20;100.00
65190;BME280;51777;53.570;9.984;2023-07-09T02:39:12;101767.97;;;19.24;100.00
65190;BME280;51777;53.570;9.984;2023-07-09T02:41:39;101769.47;;;19.18;100.00
65190;BME280;51777;53.570;9.984;2023-07-09T02:44:05;101767.84;;;19.17;100.00
65190;BME280;51777;53.570;9.984;2023-07-09T02:46:31;101773.91;;;19.18;100.00
65190;BME280;51777;53.570;9.984;2023-07-09T02:48:56;101761.53;;;19.12;100.00
65190;BME280;51777;53.570;9.984;2023-07-09T02:51:23;101765.13;;;19.11;100.00
65190;BME280;51777;53.570;9.984;2023-07-09T02:53:49;101769.38;;;19.12;100.00
65190;BME280;51777;53.570;9.984;2023-07-09T02:56:14;101773.16;;;19.09;100.00
65190;BME280;51777;53.570;9.984;2023-07-09T02:58:40;101767.91;;;19.09;100.00
65190;BME280;51777;53.570;9.984;2023-07-09T03:01:05;101771.41;;;19.01;100.00
65190;BME280;51777;53.570;9.984;2023-07-09T03:03:31;101770.78;;;18.99;100.00
65190;BME280;51777;53.570;9.984;2023-07-09T03:05:57;101770.47;;;18.94;100.00
65190;BME280;51777;53.570;9.984;2023-07-09T03:08:22;101771.28;;;18.95;100.00
65190;BME280;51777;53.570;9.984;2023-07-09T03:10:48;101771.13;;;18.96;100.00
65190;BME280;51777;53.570;9.984;2023-07-09T03:13:13;101774.91;;;18.94;100.00
65190;BME280;51777;53.570;9.984;2023-07-09T03:15:39;101771.66;;;18.92;100.00
65190;BME280;51777;53.570;9.984;2023-07-09T03:18:04;101771.38;;;18.87;100.00
65190;BME280;51777;53.570;9.984;2023-07-09T03:20:30;101768.25;;;18.83;100.00
65190;BME280;51777;53.570;9.984;2023-07-09T03:22:55;101767.63;;;18.81;100.00
65190;BME280;51777;53.570;9.984;2023-07-09T03:25:21;101774.50;;;18.82;100.00
65190;BME280;51777;53.570;9.984;2023-07-09T03:27:50;101769.06;;;18.84;100.00
65190;BME280;51777;53.570;9.984;2023-07-09T03:30:18;101783.31;;;18.89;100.00
65190;BME280;51777;53.570;9.984;2023-07-09T03:32:44;101784.16;;;18.82;100.00
65190;BME280;51777;53.570;9.984;2023-07-09T03:35:10;101781.19;;;18.85;100.00
65190;BME280;51777;53.570;9.984;2023-07-09T03:37:35;101792.16;;;18.88;100.00
65190;BME280;51777;53.570;9.984;2023-07-09T03:40:03;101784.94;;;18.90;100.00
65190;BME280;51777;53.570;9.984;2023-07-09T03:42:30;101791.53;;;18.86;100.00
65190;BME280;51777;53.570;9.984;2023-07-09T03:44:56;101788.91;;;18.86;100.00
65190;BME280;51777;53.570;9.984;2023-07-09T03:47:21;101798.56;;;18.86;100.00
65190;BME280;51777;53.570;9.984;2023-07-09T03:49:47;101789.91;;;18.85;100.00
65190;BME280;51777;53.570;9.984;2023-07-09T03:52:12;101793.66;;;18.83;100.00
65190;BME280;51777;53.570;9.984;2023-07-09T03:54:38;101796.22;;;18.91;100.00
65190;BME280;51777;53.570;9.984;2023-07-09T03:57:03;101788.38;;;18.91;100.00
65190;BME280;51777;53.570;9.984;2023-07-09T03:59:29;101787.91;;;18.87;100.00
65190;BME280;51777;53.570;9.984;2023-07-09T04:01:54;101787.91;;;18.87;100.00
65190;BME280;51777;53.570;9.984;2023-07-09T04:04:19;101786.91;;;18.88;100.00
65190;BME280;51777;53.570;9.984;2023-07-09T04:06:46;101787.72;;;18.89;100.00
65190;BME280;51777;53.570;9.984;2023-07-09T04:09:12;101792.16;;;18.88;100.00
65190;BME280;51777;53.570;9.984;2023-07-09T04:11:37;101791.53;;;18.86;100.00
65190;BME280;51777;53.570;9.984;2023-07-09T04:14:03;101792.66;;;18.84;100.00
65190;BME280;51777;53.570;9.984;2023-07-09T04:16:28;101794.16;;;18.86;100.00
65190;BME280;51777;53.570;9.984;2023-07-09T04:18:53;101791.34;;;18.88;100.00
65190;BME280;51777;53.570;9.984;2023-07-09T04:21:19;101787.59;;;18.82;100.00
65190;BME280;51777;53.570;9.984;2023-07-09T04:23:44;101796.09;;;18.84;100.00
65190;BME280;51777;53.570;9.984;2023-07-09T04:26:13;101789.72;;;18.87;100.00
65190;BME280;51777;53.570;9.984;2023-07-09T04:28:39;101797.22;;;18.90;100.00
65190;BME280;51777;53.570;9.984;2023-07-09T04:31:05;101799.84;;;18.90;100.00
65190;BME280;51777;53.570;9.984;2023-07-09T04:33:30;101796.88;;;18.93;100.00
65190;BME280;51777;53.570;9.984;2023-07-09T04:35:56;101807.34;;;18.93;100.00
65190;BME280;51777;53.570;9.984;2023-07-09T04:38:22;101794.25;;;18.93;100.00
65190;BME280;51777;53.570;9.984;2023-07-09T04:40:47;101792.16;;;18.88;100.00
65190;BME280;51777;53.570;9.984;2023-07-09T04:43:13;101794.25;;;18.93;100.00
65190;BME280;51777;53.570;9.984;2023-07-09T04:45:38;101795.53;;;18.97;100.00
65190;BME280;51777;53.570;9.984;2023-07-09T04:48:04;101789.59;;;19.03;100.00
65190;BME280;51777;53.570;9.984;2023-07-09T04:50:29;101794.13;;;19.09;100.00
65190;BME280;51777;53.570;9.984;2023-07-09T04:52:55;101786.19;;;19.17;100.00
65190;BME280;51777;53.570;9.984;2023-07-09T04:55:20;101795.88;;;19.17;100.00
65190;BME280;51777;53.570;9.984;2023-07-09T04:57:46;101785.34;;;19.25;100.00
65190;BME280;51777;53.570;9.984;2023-07-09T05:00:12;101794.28;;;19.30;100.00
65190;BME280;51777;53.570;9.984;2023-07-09T05:02:37;101795.41;;;19.36;100.00
65190;BME280;51777;53.570;9.984;2023-07-09T05:05:03;101792.88;;;19.43;100.00
65190;BME280;51777;53.570;9.984;2023-07-09T05:07:28;101792.06;;;19.42;100.00
65190;BME280;51777;53.570;9.984;2023-07-09T05:09:54;101793.88;;;19.42;100.00
65190;BME280;51777;53.570;9.984;2023-07-09T05:12:19;101797.75;;;19.46;100.00
65190;BME280;51777;53.570;9.984;2023-07-09T05:14:46;101806.72;;;19.51;100.00
65190;BME280;51777;53.570;9.984;2023-07-09T05:17:11;101810.94;;;19.60;100.00
65190;BME280;51777;53.570;9.984;2023-07-09T05:19:37;101816.09;;;19.69;100.00
65190;BME280;51777;53.570;9.984;2023-07-09T05:22:02;101811.97;;;19.74;100.00
65190;BME280;51777;53.570;9.984;2023-07-09T05:24:28;101814.22;;;19.77;100.00
65190;BME280;51777;53.570;9.984;2023-07-09T05:26:53;101818.03;;;19.89;100.00
65190;BME280;51777;53.570;9.984;2023-07-09T05:29:19;101806.78;;;19.95;100.00
65190;BME280;51777;53.570;9.984;2023-07-09T05:31:44;101812.34;;;20.01;100.00
65190;BME280;51777;53.570;9.984;2023-07-09T05:34:09;101802.66;;;20.01;100.00
65190;BME280;51777;53.570;9.984;2023-07-09T05:36:35;101811.59;;;20.07;100.00
65190;BME280;51777;53.570;9.984;2023-07-09T05:39:00;101805.44;;;20.14;100.00
65190;BME280;51777;53.570;9.984;2023-07-09T05:41:25;101808.13;;;20.21;100.00
65190;BME280;51777;53.570;9.984;2023-07-09T05:43:52;101802.72;;;20.37;100.00
65190;BME280;51777;53.570;9.984;2023-07-09T05:46:18;101810.16;;;20.48;100.00
65190;BME280;51777;53.570;9.984;2023-07-09T05:48:44;101808.22;;;20.57;100.00
65190;BME280;51777;53.570;9.984;2023-07-09T05:51:10;101812.16;;;20.68;100.00
65190;BME280;51777;53.570;9.984;2023-07-09T05:53:35;101809.72;;;20.66;100.00
65190;BME280;51777;53.570;9.984;2023-07-09T05:56:00;101812.44;;;20.73;100.00
65190;BME280;51777;53.570;9.984;2023-07-09T05:58:26;101813.06;;;20.75;100.00
65190;BME280;51777;53.570;9.984;2023-07-09T06:00:53;101809.25;;;20.77;100.00
65190;BME280;51777;53.570;9.984;2023-07-09T06:03:20;101804.88;;;20.85;100.00
65190;BME280;51777;53.570;9.984;2023-07-09T06:05:49;101802.38;;;20.98;100.00
65190;BME280;51777;53.570;9.984;2023-07-09T06:08:16;101804.06;;;21.05;100.00
65190;BME280;51777;53.570;9.984;2023-07-09T06:13:16;101807.81;;;21.18;100.00
65190;BME280;51777;53.570;9.984;2023-07-09T06:15:43;101809.06;;;21.22;100.00
65190;BME280;51777;53.570;9.984;2023-07-09T06:18:09;101808.94;;;21.30;100.00
65190;BME280;51777;53.570;9.984;2023-07-09T06:20:34;101806.38;;;21.36;100.00
65190;BME280;51777;53.570;9.984;2023-07-09T06:22:59;101807.00;;;21.38;100.00
65190;BME280;51777;53.570;9.984;2023-07-09T06:25:25;101807.91;;;21.52;100.00
65190;BME280;51777;53.570;9.984;2023-07-09T06:27:51;101809.41;;;21.61;100.00
65190;BME280;51777;53.570;9.984;2023-07-09T06:30:16;101810.91;;;21.77;100.00
65190;BME280;51777;53.570;9.984;2023-07-09T06:32:44;101818.00;;;21.77;100.00
65190;BME280;51777;53.570;9.984;2023-07-09T06:35:10;101814.03;;;21.94;100.00
65190;BME280;51777;53.570;9.984;2023-07-09T06:37:35;101814.59;;;22.11;100.00
65190;BME280;51777;53.570;9.984;2023-07-09T06:40:01;101821.31;;;22.20;100.00
65190;BME280;51777;53.570;9.984;2023-07-09T06:42:27;101822.56;;;22.31;100.00
65190;BME280;51777;53.570;9.984;2023-07-09T06:44:53;101825.66;;;22.34;100.00
65190;BME280;51777;53.570;9.984;2023-07-09T06:47:18;101827.72;;;22.45;100.00
65190;BME280;51777;53.570;9.984;2023-07-09T06:49:43;101823.69;;;22.56;100.00
65190;BME280;51777;53.570;9.984;2023-07-09T06:52:09;101830.59;;;22.64;100.00
65190;BME280;51777;53.570;9.984;2023-07-09T06:54:34;101829.69;;;22.84;100.00
65190;BME280;51777;53.570;9.984;2023-07-09T06:57:00;101836.81;;;23.04;100.00
65190;BME280;51777;53.570;9.984;2023-07-09T06:59:25;101834.38;;;23.15;100.00
65190;BME280;51777;53.570;9.984;2023-07-09T07:01:50;101836.41;;;23.27;100.00
65190;BME280;51777;53.570;9.984;2023-07-09T07:04:16;101834.00;;;23.38;100.00
65190;BME280;51777;53.570;9.984;2023-07-09T07:06:41;101832.78;;;23.48;100.00
65190;BME280;51777;53.570;9.984;2023-07-09T07:09:07;101825.06;;;23.66;100.00
65190;BME280;51777;53.570;9.984;2023-07-09T07:11:32;101824.03;;;23.67;100.00
65190;BME280;51777;53.570;9.984;2023-07-09T07:13:57;101814.53;;;23.59;100.00
65190;BME280;51777;53.570;9.984;2023-07-09T07:16:23;101812.09;;;23.58;100.00
65190;BME280;51777;53.570;9.984;2023-07-09T07:18:48;101820.78;;;23.65;100.00
65190;BME280;51777;53.570;9.984;2023-07-09T07:21:15;101817.31;;;23.78;100.00
65190;BME280;51777;53.570;9.984;2023-07-09T07:23:40;101828.44;;;23.93;100.00
65190;BME280;51777;53.570;9.984;2023-07-09T07:26:06;101828.03;;;24.09;100.00
65190;BME280;51777;53.570;9.984;2023-07-09T07:28:36;101827.75;;;24.24;100.00
65190;BME280;51777;53.570;9.984;2023-07-09T07:31:04;101828.72;;;24.43;100.00
65190;BME280;51777;53.570;9.984;2023-07-09T07:33:30;101823.16;;;24.57;100.00
65190;BME280;51777;53.570;9.984;2023-07-09T07:35:55;101827.59;;;24.64;100.00
65190;BME280;51777;53.570;9.984;2023-07-09T07:38:21;101827.00;;;24.62;100.00
65190;BME280;51777;53.570;9.984;2023-07-09T07:40:46;101829.19;;;24.71;100.00
65190;BME280;51777;53.570;9.984;2023-07-09T07:43:12;101832.81;;;24.77;100.00
65190;BME280;51777;53.570;9.984;2023-07-09T07:45:42;101828.47;;;24.89;100.00
65190;BME280;51777;53.570;9.984;2023-07-09T07:48:08;101828.47;;;24.89;100.00
65190;BME280;51777;53.570;9.984;2023-07-09T07:50:34;101826.50;;;24.78;100.00
65190;BME280;51777;53.570;9.984;2023-07-09T07:53:01;101825.91;;;24.76;100.00
65190;BME280;51777;53.570;9.984;2023-07-09T07:55:26;101831.78;;;24.78;100.00
65190;BME280;51777;53.570;9.984;2023-07-09T07:57:52;101827.03;;;24.93;100.00
65190;BME280;51777;53.570;9.984;2023-07-09T08:00:18;101834.63;;;25.14;100.00
65190;BME280;51777;53.570;9.984;2023-07-09T08:02:43;101830.56;;;25.37;100.00
65190;BME280;51777;53.570;9.984;2023-07-09T08:05:08;101828.25;;;25.47;100.00
65190;BME280;51777;53.570;9.984;2023-07-09T08:07:34;101827.09;;;25.61;100.00
65190;BME280;51777;53.570;9.984;2023-07-09T08:09:59;101828.78;;;25.81;100.00
65190;BME280;51777;53.570;9.984;2023-07-09T08:12:25;101829.84;;;25.91;100.00
65190;BME280;51777;53.570;9.984;2023-07-09T08:14:50;101823.53;;;26.11;100.00
65190;BME280;51777;53.570;9.984;2023-07-09T08:17:16;101825.63;;;26.99;100.00
65190;BME280;51777;53.570;9.984;2023-07-09T08:19:50;101827.13;;;28.12;100.00
65190;BME280;51777;53.570;9.984;2023-07-09T08:22:16;101837.66;;;29.20;100.00
65190;BME280;51777;53.570;9.984;2023-07-09T08:24:42;101856.69;;;31.36;100.00
65190;BME280;51777;53.570;9.984;2023-07-09T08:27:07;101852.38;;;32.45;100.00
65190;BME280;51777;53.570;9.984;2023-07-09T08:29:34;101848.13;;;32.54;100.00
65190;BME280;51777;53.570;9.984;2023-07-09T08:31:59;101835.56;;;31.82;100.00
65190;BME280;51777;53.570;9.984;2023-07-09T08:34:25;101844.72;;;32.99;99.97
65190;BME280;51777;53.570;9.984;2023-07-09T08:36:50;101854.97;;;34.86;97.78
65190;BME280;51777;53.570;9.984;2023-07-09T08:39:16;101860.72;;;35.62;96.71
65190;BME280;51777;53.570;9.984;2023-07-09T08:41:48;101870.09;;;37.01;94.70
65190;BME280;51777;53.570;9.984;2023-07-09T08:47:36;101873.38;;;37.72;93.64
65190;BME280;51777;53.570;9.984;2023-07-09T08:50:09;101874.16;;;38.00;92.64
65190;BME280;51777;53.570;9.984;2023-07-09T08:52:38;101871.06;;;38.87;93.05
65190;BME280;51777;53.570;9.984;2023-07-09T08:55:09;101868.97;;;38.62;92.87
65190;BME280;51777;53.570;9.984;2023-07-09T08:57:40;101872.09;;;39.79;92.65
65190;BME280;51777;53.570;9.984;2023-07-09T09:02:52;101865.81;;;39.53;92.71
65190;BME280;51777;53.570;9.984;2023-07-09T09:05:22;101863.75;;;39.10;92.50
65190;BME280;51777;53.570;9.984;2023-07-09T09:07:56;101862.56;;;39.33;92.20
65190;BME280;51777;53.570;9.984;2023-07-09T09:10:43;101866.41;;;39.32;92.16
65190;BME280;51777;53.570;9.984;2023-07-09T09:13:12;101867.69;;;39.44;92.50
65190;BME280;51777;53.570;9.984;2023-07-09T09:15:45;101862.44;;;40.04;91.96
65190;BME280;51777;53.570;9.984;2023-07-09T09:20:51;101859.81;;;39.25;92.56
65190;BME280;51777;53.570;9.984;2023-07-09T09:23:18;101863.09;;;39.53;92.70
65190;BME280;51777;53.570;9.984;2023-07-09T09:25:49;101859.34;;;39.31;92.72
65190;BME280;51777;53.570;9.984;2023-07-09T09:28:15;101858.78;;;38.81;92.76
65190;BME280;51777;53.570;9.984;2023-07-09T09:30:40;101859.94;;;39.11;92.91
65190;BME280;51777;53.570;9.984;2023-07-09T09:33:10;101858.56;;;39.00;92.51
65190;BME280;51777;53.570;9.984;2023-07-09T09:35:42;101841.41;;;38.15;93.72
65190;BME280;51777;53.570;9.984;2023-07-09T09:38:16;101839.88;;;37.45;94.16
65190;BME280;51777;53.570;9.984;2023-07-09T09:40:42;101833.59;;;37.50;94.51
65190;BME280;51777;53.570;9.984;2023-07-09T09:43:16;101838.34;;;38.08;93.90
65190;BME280;51777;53.570;9.984;2023-07-09T09:45:46;101831.38;;;37.52;94.92
65190;BME280;51777;53.570;9.984;2023-07-09T09:48:27;101839.25;;;37.89;93.91
65190;BME280;51777;53.570;9.984;2023-07-09T09:50:53;101840.47;;;38.33;93.90
65190;BME280;51777;53.570;9.984;2023-07-09T09:53:21;101842.66;;;38.98;93.01
65190;BME280;51777;53.570;9.984;2023-07-09T09:55:56;101843.63;;;38.71;93.25
65190;BME280;51777;53.570;9.984;2023-07-09T09:58:29;101852.69;;;39.06;92.91
65190;BME280;51777;53.570;9.984;2023-07-09T10:00:58;101852.19;;;38.96;93.26
65190;BME280;51777;53.570;9.984;2023-07-09T10:03:37;101848.16;;;38.62;93.10
65190;BME280;51777;53.570;9.984;2023-07-09T10:06:14;101834.66;;;37.90;93.46
65190;BME280;51777;53.570;9.984;2023-07-09T10:08:55;101838.53;;;38.70;93.72
65190;BME280;51777;53.570;9.984;2023-07-09T10:11:35;101842.72;;;39.47;93.26
65190;BME280;51777;53.570;9.984;2023-07-09T10:14:19;101841.16;;;38.92;92.92
65190;BME280;51777;53.570;9.984;2023-07-09T10:16:52;101842.75;;;38.85;93.51
65190;BME280;51777;53.570;9.984;2023-07-09T10:19:47;101843.50;;;39.47;92.66
65190;BME280;51777;53.570;9.984;2023-07-09T10:25:01;101844.63;;;39.46;92.62
65190;BME280;51777;53.570;9.984;2023-07-09T10:27:33;101848.66;;;39.57;93.25
65190;BME280;51777;53.570;9.984;2023-07-09T10:30:37;101851.72;;;39.73;92.62
65190;BME280;51777;53.570;9.984;2023-07-09T10:33:16;101845.56;;;40.07;92.12
65190;BME280;51777;53.570;9.984;2023-07-09T10:35:54;101842.16;;;39.76;93.21
65190;BME280;51777;53.570;9.984;2023-07-09T10:38:43;101834.53;;;39.95;93.51
65190;BME280;51777;53.570;9.984;2023-07-09T10:41:12;101828.63;;;39.84;93.01
65190;BME280;51777;53.570;9.984;2023-07-09T10:43:52;101829.53;;;39.62;93.75
65190;BME280;51777;53.570;9.984;2023-07-09T10:46:26;101835.94;;;39.27;92.73
65190;BME280;51777;53.570;9.984;2023-07-09T10:48:54;101815.63;;;38.31;93.97
65190;BME280;51777;53.570;9.984;2023-07-09T10:51:50;101812.91;;;37.59;94.67
65190;BME280;51777;53.570;9.984;2023-07-09T10:54:38;101811.91;;;37.41;94.34
65190;BME280;51777;53.570;9.984;2023-07-09T10:57:14;101810.59;;;36.79;94.83
65190;BME280;51777;53.570;9.984;2023-07-09T10:59:46;101806.34;;;36.91;94.97
65190;BME280;51777;53.570;9.984;2023-07-09T11:02:30;101806.38;;;36.40;95.07
65190;BME280;51777;53.570;9.984;2023-07-09T11:04:58;101808.81;;;35.80;95.98
65190;BME280;51777;53.570;9.984;2023-07-09T11:09:54;101801.56;;;37.02;94.90
65190;BME280;51777;53.570;9.984;2023-07-09T11:15:11;101800.22;;;36.72;95.08
65190;BME280;51777;53.570;9.984;2023-07-09T11:17:40;101795.69;;;36.67;94.80
65190;BME280;51777;53.570;9.984;2023-07-09T11:20:18;101804.28;;;37.02;94.73
65190;BME280;51777;53.570;9.984;2023-07-09T11:22:52;101793.69;;;37.19;94.20
65190;BME280;51777;53.570;9.984;2023-07-09T11:25:46;101799.97;;;37.15;94.49
65190;BME280;51777;53.570;9.984;2023-07-09T11:28:13;101793.97;;;37.04;94.33
65190;BME280;51777;53.570;9.984;2023-07-09T11:31:04;101783.59;;;36.65;95.13
65190;BME280;51777;53.570;9.984;2023-07-09T11:33:30;101785.69;;;37.00;94.70
65190;BME280;51777;53.570;9.984;2023-07-09T11:36:24;101778.00;;;36.61;94.77
65190;BME280;51777;53.570;9.984;2023-07-09T11:38:52;101780.94;;;36.79;94.75
65190;BME280;51777;53.570;9.984;2023-07-09T11:52:28;101769.59;;;37.78;93.89
65190;BME280;51777;53.570;9.984;2023-07-09T11:54:56;101771.88;;;38.07;93.58
65190;BME280;51777;53.570;9.984;2023-07-09T11:57:22;101768.91;;;38.08;93.29
65190;BME280;51777;53.570;9.984;2023-07-09T11:59:47;101771.91;;;38.74;92.98
65190;BME280;51777;53.570;9.984;2023-07-09T12:02:23;101772.94;;;38.42;92.50
65190;BME280;51777;53.570;9.984;2023-07-09T12:04:50;101775.66;;;38.95;91.89
65190;BME280;51777;53.570;9.984;2023-07-09T12:07:16;101770.22;;;38.19;91.45
65190;BME280;51777;53.570;9.984;2023-07-09T12:09:48;101773.06;;;38.90;91.70
65190;BME280;51777;53.570;9.984;2023-07-09T12:12:24;101772.56;;;39.19;90.94
65190;BME280;51777;53.570;9.984;2023-07-09T12:14:51;101767.22;;;38.66;91.12
65190;BME280;51777;53.570;9.984;2023-07-09T12:17:17;101764.50;;;38.35;91.01
65190;BME280;51777;53.570;9.984;2023-07-09T12:19:43;101764.97;;;38.37;91.51
65190;BME280;51777;53.570;9.984;2023-07-09T12:22:20;101758.69;;;38.50;91.16
65190;BME280;51777;53.570;9.984;2023-07-09T12:24:48;101752.06;;;38.11;90.73
65190;BME280;51777;53.570;9.984;2023-07-09T12:27:23;101751.91;;;38.61;91.15
65190;BME280;51777;53.570;9.984;2023-07-09T12:29:51;101749.38;;;38.65;90.96
65190;BME280;51777;53.570;9.984;2023-07-09T12:32:17;101750.03;;;39.01;90.51
65190;BME280;51777;53.570;9.984;2023-07-09T12:34:54;101748.34;;;38.74;91.22
65190;BME280;51777;53.570;9.984;2023-07-09T12:37:21;101745.03;;;38.55;90.89
65190;BME280;51777;53.570;9.984;2023-07-09T12:39:51;101738.75;;;38.37;91.75
65190;BME280;51777;53.570;9.984;2023-07-09T12:42:31;101735.69;;;38.61;91.28
65190;BME280;51777;53.570;9.984;2023-07-09T12:45:01;101738.50;;;38.47;90.39
65190;BME280;51777;53.570;9.984;2023-07-09T12:47:27;101739.78;;;38.05;90.26
65190;BME280;51777;53.570;9.984;2023-07-09T12:50:10;101726.34;;;38.14;90.93
65190;BME280;51777;53.570;9.984;2023-07-09T12:52:48;101729.63;;;38.87;90.60
65190;BME280;51777;53.570;9.984;2023-07-09T12:55:22;101729.53;;;38.38;90.18
65190;BME280;51777;53.570;9.984;2023-07-09T12:57:53;101723.47;;;38.33;90.96
65190;BME280;51777;53.570;9.984;2023-07-09T13:00:20;101719.94;;;37.87;90.91
65190;BME280;51777;53.570;9.984;2023-07-09T13:02:53;101716.00;;;37.57;91.13
65190;BME280;51777;53.570;9.984;2023-07-09T13:05:22;101718.38;;;37.09;91.92
65190;BME280;51777;53.570;9.984;2023-07-09T13:07:58;101716.88;;;37.30;91.25
65190;BME280;51777;53.570;9.984;2023-07-09T13:10:28;101715.34;;;37.52;91.19
65190;BME280;51777;53.570;9.984;2023-07-09T13:12:56;101722.94;;;37.50;91.67
65190;BME280;51777;53.570;9.984;2023-07-09T13:18:04;101720.50;;;37.62;90.57
65190;BME280;51777;53.570;9.984;2023-07-09T13:20:37;101725.25;;;37.29;91.07
65190;BME280;51777;53.570;9.984;2023-07-09T13:23:12;101714.75;;;36.72;92.21
65190;BME280;51777;53.570;9.984;2023-07-09T13:25:41;101706.34;;;36.28;92.13
65190;BME280;51777;53.570;9.984;2023-07-09T13:30:39;101691.69;;;36.01;92.86